createdAt,value
2022-10-28T00:00:30.062Z,11.4
2022-10-28T00:02:31.535Z,11.36
2022-10-28T00:04:32.861Z,11.3
2022-10-28T00:06:33.972Z,11.23
2022-10-28T00:08:35.376Z,11.06
2022-10-28T00:10:36.452Z,11.07
2022-10-28T00:12:38.274Z,11.06
2022-10-28T00:14:39.569Z,11.1
2022-10-28T00:16:40.591Z,11.16
2022-10-28T00:18:41.794Z,11.13
2022-10-28T00:20:42.871Z,11.03
2022-10-28T00:22:44.579Z,11.05
2022-10-28T00:24:46.292Z,11.07
2022-10-28T00:26:48.182Z,11.07
2022-10-28T00:28:49.551Z,11.1
2022-10-28T00:30:51.015Z,11.31
2022-10-28T00:32:52.384Z,11.3
2022-10-28T00:34:53.267Z,11.3
2022-10-28T00:36:54.640Z,11.35
2022-10-28T00:38:55.705Z,11.35
2022-10-28T00:40:56.936Z,11.34
2022-10-28T00:42:58.001Z,11.39
2022-10-28T00:44:59.592Z,11.35
2022-10-28T00:47:01.211Z,11.32
2022-10-28T00:49:03.105Z,11.26
2022-10-28T00:51:04.731Z,11.16
2022-10-28T00:53:06.637Z,11.07
2022-10-28T00:55:08.514Z,11.1
2022-10-28T00:57:10.286Z,11.06
2022-10-28T00:59:11.266Z,10.94
2022-10-28T01:01:12.678Z,11.07
2022-10-28T01:03:13.739Z,11.1
2022-10-28T01:05:15.576Z,11.16
2022-10-28T01:07:17.364Z,11.18
2022-10-28T01:09:18.692Z,11.11
2022-10-28T01:11:20.474Z,10.99
2022-10-28T01:13:22.213Z,10.9
2022-10-28T01:15:23.919Z,10.84
2022-10-28T01:17:24.868Z,10.83
2022-10-28T01:19:25.877Z,10.82
2022-10-28T01:21:27.160Z,10.75
2022-10-28T01:23:28.544Z,10.68
2022-10-28T01:25:30.435Z,10.65
2022-10-28T01:27:32.310Z,10.76
2022-10-28T01:29:33.952Z,10.9
2022-10-28T01:31:35.599Z,10.89
2022-10-28T01:33:36.663Z,10.88
2022-10-28T01:35:37.695Z,10.82
2022-10-28T01:37:38.924Z,10.8
2022-10-28T01:39:40.429Z,10.79
2022-10-28T01:41:41.985Z,10.8
2022-10-28T01:43:43.541Z,10.79
2022-10-28T01:45:45.477Z,10.79
2022-10-28T01:47:47.338Z,10.77
2022-10-28T01:49:48.538Z,10.79
2022-10-28T01:51:50.377Z,10.8
2022-10-28T01:53:52.247Z,10.83
2022-10-28T01:55:53.472Z,10.8
2022-10-28T01:57:54.999Z,10.79
2022-10-28T01:59:56.089Z,10.82
2022-10-28T02:01:57.656Z,10.87
2022-10-28T02:03:59.313Z,10.84
2022-10-28T02:06:00.266Z,10.76
2022-10-28T02:08:02.112Z,10.74
2022-10-28T02:10:03.760Z,10.71
2022-10-28T02:12:05.469Z,10.57
2022-10-28T02:14:07.393Z,10.53
2022-10-28T02:16:08.803Z,10.54
2022-10-28T02:18:10.679Z,10.56
2022-10-28T02:20:11.727Z,10.63
2022-10-28T02:22:12.669Z,10.6
2022-10-28T02:24:13.716Z,10.7
2022-10-28T02:26:14.612Z,10.79
2022-10-28T02:28:15.640Z,10.76
2022-10-28T02:30:17.508Z,10.83
2022-10-28T02:32:19.373Z,10.75
2022-10-28T02:34:20.780Z,10.72
2022-10-28T02:36:22.524Z,10.75
2022-10-28T02:38:24.005Z,10.77
2022-10-28T02:40:25.103Z,10.81
2022-10-28T02:42:26.138Z,10.85
2022-10-28T02:44:27.587Z,10.96
2022-10-28T02:46:29.434Z,10.93
2022-10-28T02:48:31.274Z,10.96
2022-10-28T02:50:32.515Z,10.97
2022-10-28T02:52:34.216Z,10.86
2022-10-28T02:54:35.890Z,10.72
2022-10-28T02:56:37.468Z,10.61
2022-10-28T03:00:40.236Z,10.68
2022-10-28T03:02:41.750Z,10.51
2022-10-28T03:04:42.998Z,10.52
2022-10-28T03:06:44.272Z,10.52
2022-10-28T03:08:45.971Z,10.65
2022-10-28T03:10:47.551Z,10.71
2022-10-28T03:12:49.437Z,10.75
2022-10-28T03:14:50.936Z,10.63
2022-10-28T03:16:51.971Z,10.58
2022-10-28T03:18:53.169Z,10.5
2022-10-28T03:20:56.626Z,10.46
2022-10-28T03:22:56.263Z,10.31
2022-10-28T03:24:57.311Z,10.24
2022-10-28T03:29:00.037Z,10.27
2022-10-28T03:33:02.603Z,10.44
2022-10-28T03:35:03.688Z,10.4
2022-10-28T03:37:05.614Z,10.34
2022-10-28T03:39:07.033Z,10.34
2022-10-28T03:41:08.411Z,10.51
2022-10-28T03:43:10.153Z,10.58
2022-10-28T03:45:11.367Z,10.62
2022-10-28T03:47:12.828Z,10.71
2022-10-28T03:49:14.154Z,10.74
2022-10-28T03:51:15.754Z,10.8
2022-10-28T03:53:17.126Z,10.8
2022-10-28T03:55:18.196Z,10.81
2022-10-28T03:57:19.240Z,10.85
2022-10-28T03:59:20.457Z,10.85
2022-10-28T04:01:21.836Z,10.86
2022-10-28T04:03:22.671Z,10.81
2022-10-28T04:05:24.060Z,10.78
2022-10-28T04:07:25.596Z,10.74
2022-10-28T04:09:27.129Z,10.76
2022-10-28T04:11:28.791Z,10.7
2022-10-28T04:13:30.571Z,10.73
2022-10-28T04:15:31.551Z,10.75
2022-10-28T04:17:32.516Z,10.77
2022-10-28T04:19:33.834Z,10.8
2022-10-28T04:21:35.692Z,10.81
2022-10-28T04:23:37.331Z,10.82
2022-10-28T04:25:39.229Z,10.83
2022-10-28T04:27:40.613Z,10.79
2022-10-28T04:29:42.474Z,10.83
2022-10-28T04:31:45.507Z,10.85
2022-10-28T04:33:45.194Z,10.87
2022-10-28T04:35:46.633Z,10.86
2022-10-28T04:37:48.371Z,10.84
2022-10-28T04:39:49.817Z,10.84
2022-10-28T04:41:50.796Z,10.9
2022-10-28T04:42:34.659Z,10.91
2022-10-28T04:44:36.217Z,10.74
2022-10-28T04:46:37.842Z,10.68
2022-10-28T04:48:38.931Z,10.73
2022-10-28T04:50:40.318Z,10.74
2022-10-28T04:52:41.880Z,10.8
2022-10-28T04:54:43.075Z,10.79
2022-10-28T04:56:44.169Z,10.79
2022-10-28T04:58:45.850Z,10.74
2022-10-28T05:00:47.084Z,10.75
2022-10-28T05:02:48.093Z,10.68
2022-10-28T05:04:49.991Z,10.7
2022-10-28T05:06:51.539Z,10.69
2022-10-28T05:08:53.097Z,10.72
2022-10-28T05:10:54.367Z,10.73
2022-10-28T05:12:55.638Z,10.77
2022-10-28T05:14:57.171Z,10.82
2022-10-28T05:16:58.726Z,10.81
2022-10-28T05:19:00.300Z,10.85
2022-10-28T05:21:01.315Z,10.95
2022-10-28T05:23:02.904Z,10.94
2022-10-28T05:25:04.538Z,10.99
2022-10-28T05:27:06.095Z,10.95
2022-10-28T05:29:07.895Z,10.91
2022-10-28T05:31:09.722Z,10.98
2022-10-28T05:33:10.757Z,10.93
2022-10-28T05:35:12.460Z,10.98
2022-10-28T05:37:13.710Z,11.06
2022-10-28T05:39:15.249Z,10.88
2022-10-28T05:41:16.987Z,10.8
2022-10-28T05:43:18.328Z,11.04
2022-10-28T05:45:20.300Z,11.41
2022-10-28T05:47:21.203Z,11.25
2022-10-28T05:51:24.036Z,11.28
2022-10-28T05:53:25.479Z,10.69
2022-10-28T05:55:26.558Z,10.64
2022-10-28T05:57:28.357Z,10.8
2022-10-28T05:59:29.508Z,10.79
2022-10-28T06:01:30.779Z,10.75
2022-10-28T06:03:31.843Z,10.76
2022-10-28T06:05:32.751Z,10.78
2022-10-28T06:07:33.934Z,10.79
2022-10-28T06:09:34.898Z,10.76
2022-10-28T06:11:34.720Z,10.78
2022-10-28T06:13:36.569Z,10.78
2022-10-28T06:15:37.699Z,10.77
2022-10-28T06:17:39.109Z,10.77
2022-10-28T06:19:40.719Z,10.74
2022-10-28T06:21:42.003Z,10.81
2022-10-28T06:23:43.285Z,10.9
2022-10-28T06:25:44.486Z,10.97
2022-10-28T06:27:45.782Z,11.04
2022-10-28T06:29:47.547Z,11.04
2022-10-28T06:31:48.682Z,11.03
2022-10-28T06:33:49.650Z,10.99
2022-10-28T06:35:50.713Z,10.86
2022-10-28T06:37:52.288Z,10.91
2022-10-28T06:39:53.656Z,10.88
2022-10-28T06:41:55.229Z,10.94
2022-10-28T06:43:56.811Z,10.96
2022-10-28T06:45:58.530Z,11.11
2022-10-28T06:48:01.425Z,11.2
2022-10-28T06:50:02.584Z,11.27
2022-10-28T06:52:04.044Z,11.34
2022-10-28T06:54:05.009Z,11.47
2022-10-28T06:56:06.630Z,11.59
2022-10-28T06:58:07.727Z,11.58
2022-10-28T07:00:09.244Z,11.6
2022-10-28T07:02:11.085Z,11.55
2022-10-28T07:04:12.303Z,11.53
2022-10-28T07:08:15.143Z,11.41
2022-10-28T07:10:16.889Z,11.39
2022-10-28T07:14:20.297Z,11.49
2022-10-28T07:16:22.108Z,11.51
2022-10-28T07:18:23.328Z,11.57
2022-10-28T07:20:25.240Z,11.59
2022-10-28T07:22:26.276Z,11.7
2022-10-28T07:26:29.209Z,11.52
2022-10-28T07:28:30.590Z,11.47
2022-10-28T07:30:32.489Z,11.46
2022-10-28T07:32:33.959Z,11.46
2022-10-28T07:34:34.897Z,11.45
2022-10-28T07:36:36.571Z,11.47
2022-10-28T07:38:37.765Z,11.51
2022-10-28T07:40:39.387Z,11.56
2022-10-28T07:42:40.578Z,11.57
2022-10-28T07:44:42.414Z,11.53
2022-10-28T07:46:43.808Z,11.68
2022-10-28T07:48:45.528Z,11.73
2022-10-28T07:50:46.694Z,11.79
2022-10-28T07:52:48.177Z,12.05
2022-10-28T07:54:49.269Z,12.25
2022-10-28T07:56:50.537Z,12.46
2022-10-28T07:58:51.422Z,12.54
2022-10-28T08:00:52.506Z,13.07
2022-10-28T08:02:53.678Z,13.28
2022-10-28T08:04:55.269Z,13.73
2022-10-28T08:06:56.967Z,13.45
2022-10-28T08:08:58.597Z,13.3
2022-10-28T08:10:59.898Z,13.12
2022-10-28T08:15:02.759Z,12.99
2022-10-28T08:17:04.538Z,12.96
2022-10-28T08:19:07.762Z,12.98
2022-10-28T08:21:07.154Z,13.07
2022-10-28T08:23:08.722Z,13.23
2022-10-28T08:25:09.705Z,13.32
2022-10-28T08:27:10.880Z,13.44
2022-10-28T08:29:12.357Z,13.52
2022-10-28T08:31:14.180Z,13.7
2022-10-28T08:33:15.933Z,13.93
2022-10-28T08:35:17.332Z,14.23
2022-10-28T08:37:19.079Z,14.4
2022-10-28T08:39:19.872Z,14.68
2022-10-28T08:41:20.979Z,14.76
2022-10-28T08:43:30.452Z,15.06
2022-10-28T08:45:24.364Z,15.48
2022-10-28T08:47:26.235Z,15.46
2022-10-28T08:49:27.609Z,15.39
2022-10-28T08:51:29.178Z,15.53
2022-10-28T08:53:30.105Z,15.65
2022-10-28T08:55:31.723Z,15.8
2022-10-28T08:57:32.595Z,15.49
2022-10-28T08:59:34.328Z,15.08
2022-10-28T09:01:35.805Z,15.02
2022-10-28T09:03:38.226Z,14.83
2022-10-28T09:05:38.411Z,15
2022-10-28T09:07:40.079Z,15.07
2022-10-28T09:09:41.248Z,15.07
2022-10-28T09:11:42.540Z,15.11
2022-10-28T09:13:43.468Z,15.19
2022-10-28T09:15:45.103Z,15.17
2022-10-28T09:17:46.835Z,15.2
2022-10-28T09:19:48.558Z,15.26
2022-10-28T09:21:50.263Z,15.28
2022-10-28T09:23:51.562Z,15.4
2022-10-28T09:25:53.134Z,15.52
2022-10-28T09:27:54.503Z,15.56
2022-10-28T09:29:55.850Z,15.55
2022-10-28T09:31:56.966Z,15.58
2022-10-28T09:33:58.491Z,15.61
2022-10-28T09:35:59.343Z,15.75
2022-10-28T09:38:00.482Z,15.78
2022-10-28T09:40:01.424Z,15.92
2022-10-28T09:42:02.316Z,16.02
2022-10-28T09:44:03.532Z,16.25
2022-10-28T09:46:04.816Z,16.28
2022-10-28T09:48:05.883Z,16.41
2022-10-28T09:50:07.337Z,16.75
2022-10-28T09:52:08.903Z,16.9
2022-10-28T09:56:11.054Z,17.1
2022-10-28T09:58:12.414Z,17.36
2022-10-28T10:00:13.795Z,17.79
2022-10-28T10:02:15.075Z,18.09
2022-10-28T10:04:16.124Z,18.54
2022-10-28T10:06:17.759Z,19.24
2022-10-28T10:08:19.117Z,19.73
2022-10-28T10:10:20.502Z,19.84
2022-10-28T10:12:21.782Z,20.09
2022-10-28T10:14:22.990Z,20.38
2022-10-28T10:16:24.408Z,20.32
2022-10-28T10:18:25.566Z,20.55
2022-10-28T10:20:27.257Z,20.21
2022-10-28T10:22:28.788Z,20.09
2022-10-28T10:24:30.148Z,19.85
2022-10-28T10:26:31.772Z,19.78
2022-10-28T10:28:33.236Z,19.78
2022-10-28T10:30:34.133Z,19.56
2022-10-28T10:32:35.669Z,19.52
2022-10-28T10:34:36.505Z,19.51
2022-10-28T10:36:37.725Z,19.72
2022-10-28T10:38:38.886Z,20.01
2022-10-28T10:40:40.074Z,20.56
2022-10-28T10:42:46.467Z,20.94
2022-10-28T10:44:42.919Z,21.01
2022-10-28T10:46:43.969Z,20.75
2022-10-28T10:48:45.556Z,20.9
2022-10-28T10:50:46.439Z,20.81
2022-10-28T10:52:47.315Z,20.8
2022-10-28T10:54:49.101Z,21
2022-10-28T10:56:50.544Z,21.47
2022-10-28T10:58:51.645Z,21.88
2022-10-28T11:00:53.121Z,21.92
2022-10-28T11:02:55.833Z,21.83
2022-10-28T11:04:55.692Z,21.63
2022-10-28T11:06:56.869Z,21.49
2022-10-28T11:08:58.091Z,21.53
2022-10-28T11:10:58.874Z,21.43
2022-10-28T11:12:59.696Z,21.47
2022-10-28T11:15:01.410Z,21.53
2022-10-28T11:17:02.768Z,21.34
2022-10-28T11:19:03.580Z,21.3
2022-10-28T11:21:04.608Z,21.03
2022-10-28T11:23:06.425Z,21.25
2022-10-28T11:25:07.878Z,21.58
2022-10-28T11:27:08.858Z,21.74
2022-10-28T11:29:53.806Z,21.95
2022-10-28T11:31:55.181Z,22.2
2022-10-28T11:33:56.235Z,22.32
2022-10-28T11:35:57.159Z,22.37
2022-10-28T11:37:57.974Z,22.74
2022-10-28T11:39:59.229Z,22.88
2022-10-28T11:42:01.024Z,22.79
2022-10-28T11:44:05.180Z,22.66
2022-10-28T11:46:03.552Z,22.81
2022-10-28T12:18:24.797Z,23.02
2022-10-28T12:20:25.312Z,23.18
2022-10-28T12:22:26.320Z,23.09
2022-10-28T12:24:27.341Z,23.28
2022-10-28T12:26:28.634Z,23.66
2022-10-28T12:28:30.193Z,24.23
2022-10-28T12:30:31.534Z,24.65
2022-10-28T12:32:33.195Z,24.8
2022-10-28T12:34:34.214Z,24.96
2022-10-28T12:36:35.151Z,25.42
2022-10-28T12:38:36.593Z,25.47
2022-10-28T12:40:37.882Z,25.36
2022-10-28T12:42:39.338Z,25.3
2022-10-28T12:46:42.281Z,25.58
2022-10-28T12:48:43.028Z,25.58
2022-10-28T12:50:44.438Z,25.16
2022-10-28T12:52:46.161Z,25.37
2022-10-28T12:54:51.138Z,25.06
2022-10-28T12:56:48.799Z,24.59
2022-10-28T12:58:50.024Z,24.77
2022-10-28T13:00:51.529Z,24.91
2022-10-28T13:02:53.444Z,25.18
2022-10-28T13:04:54.193Z,25.01
2022-10-28T13:06:55.842Z,25.04
2022-10-28T13:10:57.779Z,25.67
2022-10-28T13:12:59.115Z,25.16
2022-10-28T13:15:00.349Z,25.79
2022-10-28T13:17:01.380Z,26.1
2022-10-28T13:19:02.999Z,26.29
2022-10-28T13:21:04.589Z,26.25
2022-10-28T13:23:05.791Z,26.3
2022-10-28T13:25:06.705Z,25.87
2022-10-28T13:27:07.983Z,25.53
2022-10-28T13:29:09.653Z,25.24
2022-10-28T13:31:10.524Z,26.17
2022-10-28T13:33:11.700Z,26.69
2022-10-28T13:35:12.625Z,26.95
2022-10-28T13:37:14.236Z,27.12
2022-10-28T13:39:15.819Z,27.24
2022-10-28T13:41:16.607Z,27.25
2022-10-28T13:43:17.720Z,26.51
2022-10-28T13:45:19.367Z,26.85
2022-10-28T13:47:20.884Z,27.48
2022-10-28T13:49:21.855Z,27.67
2022-10-28T13:51:23.098Z,26.71
2022-10-28T13:53:23.888Z,27.4
2022-10-28T13:55:25.168Z,27.78
2022-10-28T13:57:25.943Z,27.16
2022-10-28T13:59:27.226Z,27.25
2022-10-28T14:01:29.069Z,26.57
2022-10-28T14:03:29.815Z,25.6
2022-10-28T14:05:30.992Z,25.54
2022-10-28T14:07:32.204Z,25.27
2022-10-28T14:09:33.276Z,24.97
2022-10-28T14:11:34.113Z,24.76
2022-10-28T14:13:35.344Z,24.36
2022-10-28T14:15:36.113Z,24.3
2022-10-28T14:17:37.452Z,23.95
2022-10-28T14:19:38.755Z,23.62
2022-10-28T14:21:40.013Z,23.22
2022-10-28T14:23:41.209Z,22.81
2022-10-28T14:25:42.063Z,22.74
2022-10-28T14:27:43.575Z,22.61
2022-10-28T14:29:45.075Z,22.39
2022-10-28T14:31:46.412Z,22.36
2022-10-28T14:33:47.601Z,22.36
2022-10-28T14:35:48.660Z,22.41
2022-10-28T14:37:50.055Z,22.51
2022-10-28T14:39:50.972Z,22.62
2022-10-28T14:41:52.076Z,22.57
2022-10-28T14:43:53.317Z,22.45
2022-10-28T14:45:54.944Z,22.42
2022-10-28T14:47:56.504Z,22.35
2022-10-28T14:49:57.515Z,22.26
2022-10-28T14:54:00.241Z,22.32
2022-10-28T14:56:01.266Z,22.29
2022-10-28T14:58:02.889Z,22.23
2022-10-28T15:00:04.550Z,22.22
2022-10-28T15:02:05.933Z,22.02
2022-10-28T15:04:07.302Z,21.61
2022-10-28T15:06:09.023Z,21.61
2022-10-28T15:08:09.886Z,21.64
2022-10-28T15:10:11.314Z,21.64
2022-10-28T15:12:12.386Z,21.57
2022-10-28T15:14:13.235Z,21.51
2022-10-28T15:16:14.958Z,21.36
2022-10-28T15:18:16.685Z,21.3
2022-10-28T15:20:18.192Z,21.27
2022-10-28T15:22:19.622Z,21.36
2022-10-28T15:24:20.677Z,21.74
2022-10-28T15:26:22.454Z,21.81
2022-10-28T15:28:23.923Z,21.6
2022-10-28T15:30:24.769Z,21.73
2022-10-28T15:32:25.798Z,21.8
2022-10-28T15:34:27.473Z,21.85
2022-10-28T15:36:28.764Z,21.79
2022-10-28T15:38:30.142Z,21.61
2022-10-28T15:40:31.791Z,21.44
2022-10-28T15:42:32.739Z,21.33
2022-10-28T15:44:34.409Z,21.21
2022-10-28T15:46:35.297Z,21.04
2022-10-28T15:48:36.800Z,20.96
2022-10-28T15:50:38.217Z,20.84
2022-10-28T15:52:39.450Z,20.62
2022-10-28T15:54:40.367Z,20.63
2022-10-28T15:56:41.672Z,20.58
2022-10-28T15:58:42.550Z,20.6
2022-10-28T16:00:43.917Z,20.5
2022-10-28T16:02:45.892Z,20.36
2022-10-28T16:04:46.912Z,20.19
2022-10-28T16:06:48.200Z,19.95
2022-10-28T16:08:49.601Z,19.77
2022-10-28T16:10:51.145Z,19.76
2022-10-28T16:12:52.588Z,19.96
2022-10-28T16:14:54.251Z,20.24
2022-10-28T16:16:56.796Z,20.28
2022-10-28T16:18:56.948Z,20.33
2022-10-28T16:20:58.634Z,20.31
2022-10-28T16:22:59.784Z,20.21
2022-10-28T16:25:01.223Z,20.2
2022-10-28T16:27:02.934Z,20.14
2022-10-28T16:29:04.253Z,20.31
2022-10-28T16:31:05.489Z,20.02
2022-10-28T16:33:06.615Z,19.88
2022-10-28T16:35:08.339Z,19.9
2022-10-28T16:37:09.999Z,19.85
2022-10-28T16:39:11.274Z,20.06
2022-10-28T16:41:12.316Z,20.14
2022-10-28T16:43:13.927Z,19.94
2022-10-28T16:45:15.450Z,19.77
2022-10-28T16:47:16.980Z,19.82
2022-10-28T16:49:18.525Z,19.7
2022-10-28T16:51:19.780Z,19.65
2022-10-28T16:53:21.567Z,19.54
2022-10-28T16:55:22.954Z,19.63
2022-10-28T16:59:25.447Z,19.7
2022-10-28T17:01:26.724Z,19.59
2022-10-28T17:03:28.046Z,19.53
2022-10-28T17:05:29.508Z,19.42
2022-10-28T17:07:30.689Z,19.3
2022-10-28T17:09:31.902Z,19.24
2022-10-28T17:11:33.301Z,19.26
2022-10-28T17:13:34.159Z,19.24
2022-10-28T17:17:37.044Z,19.22
2022-10-28T17:19:38.631Z,19.17
2022-10-28T17:21:39.853Z,18.96
2022-10-28T17:23:41.603Z,18.83
2022-10-28T17:25:42.639Z,18.74
2022-10-28T17:27:44.177Z,18.63
2022-10-28T17:29:45.579Z,18.55
2022-10-28T17:31:46.550Z,18.58
2022-10-28T17:33:48.335Z,18.53
2022-10-28T17:35:49.955Z,18.4
2022-10-28T17:37:51.955Z,18.63
2022-10-28T17:39:52.862Z,18.71
2022-10-28T17:41:54.054Z,18.71
2022-10-28T17:43:55.083Z,18.56
2022-10-28T17:45:56.417Z,18.42
2022-10-28T17:47:57.972Z,18.33
2022-10-28T17:49:59.092Z,18.1
2022-10-28T17:52:00.309Z,18.01
2022-10-28T17:54:01.764Z,17.92
2022-10-28T17:56:03.165Z,17.85
2022-10-28T17:58:04.664Z,17.78
2022-10-28T18:00:06.510Z,17.7
2022-10-28T18:02:07.510Z,17.56
2022-10-28T18:04:09.235Z,17.57
2022-10-28T18:06:10.239Z,17.58
2022-10-28T18:08:11.949Z,17.54
2022-10-28T18:10:13.157Z,17.45
2022-10-28T18:12:14.275Z,17.65
2022-10-28T18:14:59.597Z,17.6
2022-10-28T18:17:01.058Z,17.68
2022-10-28T18:19:02.096Z,17.58
2022-10-28T18:21:03.136Z,17.5
2022-10-28T18:23:04.451Z,17.5
2022-10-28T18:25:05.645Z,17.38
2022-10-28T18:27:06.948Z,17.29
2022-10-28T18:29:08.385Z,17.33
2022-10-28T18:31:09.618Z,17.42
2022-10-28T18:33:11.152Z,17.35
2022-10-28T18:35:12.123Z,17.28
2022-10-28T18:37:12.998Z,17.33
2022-10-28T18:39:14.607Z,17.51
2022-10-28T18:41:15.607Z,17.57
2022-10-28T18:43:16.566Z,17.53
2022-10-28T18:45:17.626Z,17.45
2022-10-28T18:47:18.575Z,17.58
2022-10-28T18:49:19.733Z,17.7
2022-10-28T18:53:22.177Z,17.32
2022-10-28T18:55:23.417Z,16.93
2022-10-28T18:57:24.997Z,16.88
2022-10-28T18:59:26.134Z,16.98
2022-10-28T19:01:27.852Z,17.25
2022-10-28T19:03:29.185Z,17.27
2022-10-28T19:05:30.669Z,17.2
2022-10-28T19:07:31.822Z,17.09
2022-10-28T19:09:33.570Z,17.09
2022-10-28T19:11:35.207Z,17.17
2022-10-28T19:13:36.718Z,17.05
2022-10-28T19:15:38.318Z,16.83
2022-10-28T19:17:39.940Z,16.67
2022-10-28T19:19:41.260Z,16.71
2022-10-28T19:21:42.349Z,16.69
2022-10-28T19:23:43.936Z,16.68
2022-10-28T19:25:45.417Z,16.61
2022-10-28T19:27:46.744Z,16.44
2022-10-28T19:29:48.471Z,16.34
2022-10-28T19:31:50.229Z,16.29
2022-10-28T19:33:51.524Z,16.28
2022-10-28T19:35:52.885Z,16.41
2022-10-28T19:37:54.755Z,16.35
2022-10-28T19:39:56.466Z,16.28
2022-10-28T19:41:56.658Z,16.11
2022-10-28T19:43:58.063Z,16.13
2022-10-28T19:45:58.697Z,16.21
2022-10-28T19:47:59.673Z,15.92
2022-10-28T19:50:00.975Z,15.58
2022-10-28T19:52:02.112Z,15.4
2022-10-28T19:54:03.784Z,15.48
2022-10-28T19:56:05.428Z,15.67
2022-10-28T19:58:06.778Z,15.79
2022-10-28T20:00:07.909Z,15.75
2022-10-28T20:02:09.151Z,15.72
2022-10-28T20:04:09.981Z,15.66
2022-10-28T20:06:11.864Z,15.73
2022-10-28T20:08:13.291Z,16.04
2022-10-28T20:10:14.438Z,16
2022-10-28T20:12:16.204Z,16.01
2022-10-28T20:14:17.817Z,16.17
2022-10-28T20:16:19.136Z,16.4
2022-10-28T20:18:20.061Z,16.52
2022-10-28T20:20:21.768Z,16.72
2022-10-28T20:22:22.701Z,16.81
2022-10-28T20:24:23.603Z,16.85
2022-10-28T20:26:25.419Z,16.67
2022-10-28T20:28:26.855Z,16.51
2022-10-28T20:30:27.788Z,16.08
2022-10-28T20:34:30.064Z,15.76
2022-10-28T20:36:31.008Z,15.67
2022-10-28T20:38:32.793Z,15.52
2022-10-28T20:40:33.850Z,15.42
2022-10-28T20:42:35.311Z,15.28
2022-10-28T20:44:37.050Z,15.15
2022-10-28T20:46:38.099Z,15.11
2022-10-28T20:48:39.222Z,15.13
2022-10-28T20:50:40.996Z,15.16
2022-10-28T20:52:42.787Z,15.21
2022-10-28T20:54:43.836Z,15.27
2022-10-28T20:56:45.330Z,15.34
2022-10-28T20:58:46.651Z,15.41
2022-10-28T21:00:47.561Z,15.62
2022-10-28T21:02:48.729Z,15.53
2022-10-28T21:04:49.873Z,15.5
2022-10-28T21:06:51.008Z,15.43
2022-10-28T21:08:52.464Z,15.41
2022-10-28T21:10:53.445Z,15.34
2022-10-28T21:12:55.217Z,15.48
2022-10-28T21:14:56.716Z,15.79
2022-10-28T21:16:57.974Z,15.87
2022-10-28T21:18:59.046Z,15.71
2022-10-28T21:21:00.519Z,15.6
2022-10-28T21:23:01.800Z,15.42
2022-10-28T21:25:03.459Z,15.3
2022-10-28T21:27:05.070Z,15.09
2022-10-28T21:29:06.404Z,14.95
2022-10-28T21:31:08.080Z,14.79
2022-10-28T21:33:09.768Z,14.47
2022-10-28T21:35:10.874Z,14.31
2022-10-28T21:37:12.299Z,14.24
2022-10-28T21:39:13.811Z,14.2
2022-10-28T21:41:15.156Z,14.17
2022-10-28T21:43:17.009Z,14.1
2022-10-28T21:45:18.250Z,14.05
2022-10-28T21:49:21.573Z,13.98
2022-10-28T21:51:22.446Z,14.04
2022-10-28T21:53:23.917Z,13.97
2022-10-28T21:55:41.365Z,13.97
2022-10-28T21:57:26.700Z,14.04
2022-10-28T21:59:27.681Z,14.08
2022-10-28T22:01:29.173Z,14.03
2022-10-28T22:03:30.103Z,13.96
2022-10-28T22:05:31.545Z,13.97
2022-10-28T22:07:32.756Z,13.85
2022-10-28T22:09:35.056Z,13.9
2022-10-28T22:11:35.922Z,13.93
2022-10-28T22:13:37.662Z,13.93
2022-10-28T22:15:39.147Z,13.95
2022-10-28T22:17:40.420Z,13.95
2022-10-28T22:19:41.496Z,13.99
2022-10-28T22:21:42.999Z,13.87
2022-10-28T22:23:44.753Z,13.8
2022-10-28T22:25:45.842Z,13.79
2022-10-28T22:27:46.833Z,13.77
2022-10-28T22:29:48.709Z,13.78
2022-10-28T22:31:49.676Z,13.86
2022-10-28T22:33:51.430Z,13.89
2022-10-28T22:35:53.139Z,13.89
2022-10-28T22:37:55.194Z,13.93
2022-10-28T22:39:56.201Z,13.93
2022-10-28T22:41:57.900Z,13.85
2022-10-28T22:43:59.642Z,13.81
2022-10-28T22:46:00.883Z,13.73
2022-10-28T22:48:01.912Z,13.65
2022-10-28T22:50:03.383Z,13.44
2022-10-28T22:52:05.043Z,13.34
2022-10-28T22:54:06.782Z,13.36
2022-10-28T22:56:07.776Z,13.35
2022-10-28T22:58:09.239Z,13.33
2022-10-28T23:00:10.961Z,13.31
2022-10-28T23:02:12.783Z,13.25
2022-10-28T23:04:14.204Z,13.15
2022-10-28T23:06:15.565Z,13.04
2022-10-28T23:08:16.812Z,12.97
2022-10-28T23:10:17.766Z,13.05
2022-10-28T23:12:19.563Z,13.11
2022-10-28T23:14:20.747Z,13.14
2022-10-28T23:16:22.243Z,13.12
2022-10-28T23:18:24.010Z,13.25
2022-10-28T23:20:25.283Z,13.31
2022-10-28T23:22:27.083Z,13.33
2022-10-28T23:24:28.840Z,13.31
2022-10-28T23:26:29.906Z,13.24
2022-10-28T23:28:31.567Z,13.19
2022-10-28T23:30:33.008Z,13.11
2022-10-28T23:32:34.859Z,13.02
2022-10-28T23:34:36.664Z,13.01
2022-10-28T23:36:38.239Z,13.03
2022-10-28T23:38:39.847Z,13
2022-10-28T23:40:40.913Z,12.98
2022-10-28T23:42:41.911Z,13.06
2022-10-28T23:44:43.264Z,13.17
2022-10-28T23:46:44.561Z,13.11
2022-10-28T23:48:45.659Z,13.04
2022-10-28T23:50:47.176Z,12.95
2022-10-28T23:52:48.337Z,12.92
2022-10-28T23:54:49.571Z,12.86
2022-10-28T23:56:50.593Z,12.79
2022-10-28T23:58:51.599Z,12.77
